Time;durP1;ratioP1;P1;durP2;ratioP2;P2;SDS_P1;SDS_P2;PMS_P1;PMS_P2;Temp;Humidity;BMP_temperature;BMP_pressure;BME280_temperature;BME280_humidity;BME280_pressure;Samples;Min_cycle;Max_cycle;Signal;HPM_P1;HPM_P2
2023/08/06 00:00:22;;;;;;;9.43;6.67;;;14.20;99.90;;;;;;5094643;28;20036;-69
2023/08/06 00:02:48;;;;;;;8.87;6.90;;;14.20;99.90;;;;;;5094329;28;20050;-70
2023/08/06 00:05:17;;;;;;;11.17;7.80;;;14.30;99.90;;;;;;5094530;28;20048;-70
2023/08/06 00:07:50;;;;;;;8.70;7.00;;;14.20;99.90;;;;;;5093330;28;20044;-71
2023/08/06 00:10:16;;;;;;;9.17;7.87;;;14.20;99.90;;;;;;5094874;28;20040;-70
2023/08/06 00:12:42;;;;;;;10.40;7.53;;;14.20;99.90;;;;;;5093355;28;20050;-70
2023/08/06 00:15:08;;;;;;;9.63;7.23;;;14.30;99.90;;;;;;5094242;28;20278;-70
2023/08/06 00:17:34;;;;;;;11.43;8.53;;;14.30;99.90;;;;;;5094393;28;20040;-70
2023/08/06 00:20:04;;;;;;;11.03;9.07;;;14.30;99.90;;;;;;5094073;28;20381;-70
2023/08/06 00:22:37;;;;;;;12.33;8.47;;;14.30;99.90;;;;;;5093132;28;20086;-70
2023/08/06 00:25:04;;;;;;;11.23;9.33;;;14.20;99.90;;;;;;5093707;28;20395;-71
2023/08/06 00:27:30;;;;;;;10.33;9.13;;;14.30;99.90;;;;;;5094226;28;20420;-71
2023/08/06 00:29:56;;;;;;;12.90;9.43;;;14.30;99.90;;;;;;5093905;28;20313;-71
2023/08/06 00:32:22;;;;;;;11.50;9.77;;;14.30;99.90;;;;;;5094157;28;20464;-71
2023/08/06 00:34:49;;;;;;;12.60;11.00;;;14.30;99.90;;;;;;5093338;28;20036;-72
2023/08/06 00:37:18;;;;;;;11.83;10.20;;;14.20;99.90;;;;;;5093407;28;20063;-72
2023/08/06 00:39:44;;;;;;;12.80;9.33;;;14.20;99.90;;;;;;5093994;28;20047;-71
2023/08/06 00:42:12;;;;;;;13.20;9.97;;;14.20;99.90;;;;;;5093702;28;20036;-71
2023/08/06 00:44:39;;;;;;;14.17;10.63;;;14.20;99.90;;;;;;5093876;28;20040;-72
2023/08/06 00:47:07;;;;;;;16.53;10.97;;;14.20;99.90;;;;;;5092118;28;20378;-72
2023/08/06 00:49:33;;;;;;;14.23;10.53;;;14.20;99.90;;;;;;5094036;28;20040;-72
2023/08/06 00:51:59;;;;;;;15.57;11.07;;;14.20;99.90;;;;;;5092643;28;20055;-72
2023/08/06 00:54:27;;;;;;;16.87;11.83;;;14.20;99.90;;;;;;5093058;28;20043;-72
2023/08/06 00:56:53;;;;;;;14.20;11.90;;;14.20;99.90;;;;;;5092660;28;20040;-72
2023/08/06 00:59:19;;;;;;;15.20;12.27;;;14.20;99.90;;;;;;5093642;28;20126;-71
2023/08/06 01:01:45;;;;;;;16.53;12.50;;;14.20;99.90;;;;;;5093803;28;20139;-71
2023/08/06 01:04:12;;;;;;;18.50;13.50;;;14.30;99.90;;;;;;5093461;28;20047;-71
2023/08/06 01:06:57;;;;;;;18.33;13.83;;;14.20;99.90;;;;;;5093486;28;20464;-71
2023/08/06 01:09:36;;;;;;;18.23;14.38;;;14.20;99.90;;;;;;5093839;28;20286;-70
2023/08/06 01:12:22;;;;;;;19.97;14.93;;;14.20;99.90;;;;;;5093391;28;20055;-71
2023/08/06 01:15:08;;;;;;;23.10;16.30;;;14.20;99.90;;;;;;5093518;28;20138;-70
2023/08/06 01:17:36;;;;;;;21.40;15.97;;;14.20;99.90;;;;;;5093484;28;20278;-70
2023/08/06 01:20:02;;;;;;;18.63;16.60;;;14.20;99.90;;;;;;5093175;28;20289;-70
2023/08/06 01:22:27;;;;;;;21.77;16.40;;;14.20;99.90;;;;;;5092446;28;20290;-70
2023/08/06 01:24:54;;;;;;;23.27;17.17;;;14.20;99.90;;;;;;5093192;28;20044;-70
2023/08/06 01:27:32;;;;;;;20.47;17.03;;;14.20;99.90;;;;;;5093377;28;20414;-70
2023/08/06 01:30:13;;;;;;;19.97;16.53;;;14.20;99.90;;;;;;5093600;28;20123;-70
2023/08/06 01:32:44;;;;;;;22.13;15.97;;;14.20;99.90;;;;;;5093593;28;20043;-69
2023/08/06 01:35:11;;;;;;;22.27;16.67;;;14.20;99.90;;;;;;5093232;28;20274;-69
2023/08/06 01:37:38;;;;;;;20.80;16.10;;;14.20;99.90;;;;;;5093303;28;20350;-69
2023/08/06 01:40:14;;;;;;;20.50;17.10;;;14.20;99.90;;;;;;5092710;28;20543;-70
2023/08/06 01:42:40;;;;;;;20.87;16.23;;;14.20;99.90;;;;;;5093218;28;20780;-69
2023/08/06 01:45:09;;;;;;;22.00;16.97;;;14.20;99.90;;;;;;5092851;28;20339;-70
2023/08/06 01:47:35;;;;;;;20.47;16.67;;;14.20;99.90;;;;;;5094406;28;20672;-69
2023/08/06 01:50:01;;;;;;;21.63;16.90;;;14.20;99.90;;;;;;5097030;28;20365;-70
2023/08/06 01:52:27;;;;;;;22.27;17.90;;;14.20;99.90;;;;;;5095909;28;20119;-70
2023/08/06 01:54:53;;;;;;;23.33;17.57;;;14.20;99.90;;;;;;5097032;28;20047;-69
2023/08/06 01:57:19;;;;;;;20.53;18.33;;;14.20;99.90;;;;;;5096897;28;20270;-69
2023/08/06 01:59:45;;;;;;;22.93;17.53;;;14.20;99.90;;;;;;5095964;28;20286;-69
2023/08/06 02:02:10;;;;;;;23.60;18.07;;;14.20;99.90;;;;;;5096865;28;20456;-69
2023/08/06 02:04:36;;;;;;;19.87;17.03;;;14.20;99.90;;;;;;5113005;28;20073;-69
2023/08/06 02:07:02;;;;;;;21.47;16.67;;;14.20;99.90;;;;;;5096652;28;20413;-69
2023/08/06 02:09:28;;;;;;;20.40;16.60;;;14.20;99.90;;;;;;5096884;28;20031;-69
2023/08/06 02:11:53;;;;;;;21.40;16.60;;;14.20;99.90;;;;;;5096988;28;20036;-69
2023/08/06 02:14:19;;;;;;;20.70;16.13;;;14.20;99.90;;;;;;5096593;28;20086;-69
2023/08/06 02:16:45;;;;;;;19.57;14.87;;;14.20;99.90;;;;;;5096706;28;20048;-69
2023/08/06 02:19:10;;;;;;;17.80;15.03;;;14.20;99.90;;;;;;5096450;28;20047;-69
2023/08/06 02:21:36;;;;;;;16.03;14.27;;;14.20;99.90;;;;;;5096647;28;20046;-69
2023/08/06 02:24:02;;;;;;;15.80;14.10;;;14.20;99.90;;;;;;5096405;28;20472;-70
2023/08/06 02:26:28;;;;;;;17.17;14.47;;;14.20;99.90;;;;;;5096604;28;20052;-69
2023/08/06 02:28:54;;;;;;;17.30;14.67;;;14.10;99.90;;;;;;5095028;28;20535;-69
2023/08/06 02:31:19;;;;;;;19.70;15.13;;;14.10;99.90;;;;;;5095049;28;20048;-69
2023/08/06 02:33:45;;;;;;;19.40;14.37;;;14.10;99.90;;;;;;5096331;28;20047;-69
2023/08/06 02:36:11;;;;;;;16.60;14.53;;;14.10;99.90;;;;;;5096128;28;20043;-69
2023/08/06 02:38:36;;;;;;;20.47;15.17;;;14.10;99.90;;;;;;5096398;28;20040;-69
2023/08/06 02:41:03;;;;;;;21.40;14.67;;;14.10;99.90;;;;;;5096076;28;20040;-70
2023/08/06 02:43:29;;;;;;;19.83;14.03;;;14.10;99.90;;;;;;5095152;28;20040;-69
2023/08/06 02:46:01;;;;;;;18.00;14.03;;;14.10;99.90;;;;;;5096112;28;20297;-69
2023/08/06 02:48:27;;;;;;;17.00;13.77;;;14.10;99.90;;;;;;5096168;28;20039;-69
2023/08/06 02:50:53;;;;;;;19.20;14.20;;;14.00;99.90;;;;;;5096068;28;20478;-69
2023/08/06 02:53:18;;;;;;;16.63;13.17;;;14.00;99.90;;;;;;5095888;28;20430;-69
2023/08/06 02:55:48;;;;;;;18.43;13.73;;;14.00;99.90;;;;;;5111987;28;20135;-69
2023/08/06 02:58:14;;;;;;;19.20;14.40;;;14.00;99.90;;;;;;5095411;28;20051;-69
2023/08/06 03:00:40;;;;;;;18.57;13.57;;;14.00;99.90;;;;;;5095908;28;20278;-69
2023/08/06 03:03:06;;;;;;;15.93;12.97;;;14.00;99.90;;;;;;5095361;28;20117;-70
2023/08/06 03:05:32;;;;;;;15.97;13.80;;;14.00;99.90;;;;;;5095696;28;20039;-69
2023/08/06 03:07:58;;;;;;;16.50;13.60;;;14.00;99.90;;;;;;5094463;28;20044;-69
2023/08/06 03:10:23;;;;;;;16.70;13.30;;;14.00;99.90;;;;;;5095527;28;20047;-70
2023/08/06 03:12:49;;;;;;;16.97;14.17;;;14.00;99.90;;;;;;5094911;28;20036;-69
2023/08/06 03:15:15;;;;;;;14.43;12.83;;;14.00;99.90;;;;;;5095429;28;20092;-69
2023/08/06 03:17:41;;;;;;;15.60;13.13;;;14.00;99.90;;;;;;5095571;28;20089;-69
2023/08/06 03:20:07;;;;;;;15.80;13.03;;;14.00;99.90;;;;;;5094116;28;20082;-69
2023/08/06 03:22:33;;;;;;;14.97;13.13;;;14.00;99.90;;;;;;5095566;28;20044;-69
2023/08/06 03:24:58;;;;;;;17.00;13.70;;;14.00;99.90;;;;;;5095452;28;20133;-69
2023/08/06 03:27:24;;;;;;;16.63;12.47;;;14.00;99.90;;;;;;5094674;28;20048;-69
2023/08/06 03:29:50;;;;;;;16.33;13.30;;;14.00;99.90;;;;;;5095313;28;20048;-69
2023/08/06 03:32:16;;;;;;;17.70;13.43;;;14.00;99.90;;;;;;5094804;28;20044;-69
2023/08/06 03:34:42;;;;;;;16.57;13.43;;;14.00;99.90;;;;;;5095191;28;20039;-69
2023/08/06 03:37:08;;;;;;;16.77;13.50;;;14.00;99.90;;;;;;5094970;28;20274;-70
2023/08/06 03:39:33;;;;;;;15.43;12.03;;;14.00;99.90;;;;;;5095167;28;20093;-69
2023/08/06 03:41:59;;;;;;;14.90;12.50;;;14.00;99.90;;;;;;5095048;28;20055;-69
2023/08/06 03:44:26;;;;;;;18.23;13.57;;;14.00;99.90;;;;;;5094518;28;20131;-69
2023/08/06 03:46:52;;;;;;;16.40;12.63;;;14.00;99.90;;;;;;5110977;28;20106;-69
2023/08/06 03:49:18;;;;;;;16.27;14.17;;;14.00;99.90;;;;;;5094752;28;20043;-69
2023/08/06 03:51:43;;;;;;;16.60;13.03;;;14.00;99.90;;;;;;5094867;28;20086;-69
2023/08/06 03:54:09;;;;;;;17.23;13.03;;;14.10;99.90;;;;;;5094758;28;20476;-70
2023/08/06 03:56:35;;;;;;;17.70;13.43;;;14.10;99.90;;;;;;5094525;28;20039;-69
2023/08/06 03:59:00;;;;;;;15.37;13.07;;;14.10;99.90;;;;;;5094858;28;20123;-69
2023/08/06 04:01:26;;;;;;;17.00;14.20;;;14.10;99.90;;;;;;5094514;28;20476;-69
2023/08/06 04:03:52;;;;;;;19.07;14.43;;;14.20;99.90;;;;;;5093468;28;20491;-69
2023/08/06 04:06:17;;;;;;;15.70;12.67;;;14.20;99.90;;;;;;5093139;28;20111;-69
2023/08/06 04:08:43;;;;;;;16.80;13.53;;;14.20;99.90;;;;;;5094597;28;20040;-69
2023/08/06 04:11:09;;;;;;;16.90;13.67;;;14.20;99.90;;;;;;5093693;28;20036;-69
2023/08/06 04:13:34;;;;;;;14.90;12.63;;;14.30;99.90;;;;;;5094207;28;20044;-70
2023/08/06 04:16:04;;;;;;;16.03;13.80;;;14.20;99.90;;;;;;5094417;28;20040;-69
2023/08/06 04:18:30;;;;;;;18.23;14.20;;;14.30;99.90;;;;;;5094157;28;20042;-69
2023/08/06 04:20:57;;;;;;;17.87;13.20;;;14.20;99.90;;;;;;5110280;28;20048;-69
2023/08/06 04:23:23;;;;;;;16.07;13.23;;;14.20;99.90;;;;;;5093173;28;20044;-69
2023/08/06 04:25:49;;;;;;;16.43;14.50;;;14.20;99.90;;;;;;5094081;28;20035;-69
2023/08/06 04:28:14;;;;;;;15.77;14.10;;;14.20;99.90;;;;;;5093745;28;20044;-70
2023/08/06 04:30:40;;;;;;;18.43;14.40;;;14.20;99.90;;;;;;5094090;28;20043;-69
2023/08/06 04:33:06;;;;;;;23.80;15.30;;;14.30;99.90;;;;;;5094113;28;20086;-69
2023/08/06 04:35:31;;;;;;;17.13;14.70;;;14.30;99.90;;;;;;5094162;28;20032;-70
2023/08/06 04:37:57;;;;;;;16.70;14.00;;;14.30;99.90;;;;;;5093967;28;20463;-69
2023/08/06 04:40:23;;;;;;;16.70;14.57;;;14.30;99.90;;;;;;5093803;28;20036;-69
2023/08/06 04:42:48;;;;;;;17.33;13.67;;;14.30;99.90;;;;;;5109640;28;20052;-69
2023/08/06 04:45:14;;;;;;;18.00;15.00;;;14.30;99.90;;;;;;5093698;28;20088;-71
2023/08/06 04:47:40;;;;;;;16.27;14.57;;;14.30;99.90;;;;;;5094263;28;20047;-69
2023/08/06 04:50:06;;;;;;;16.00;14.03;;;14.30;99.90;;;;;;5093945;28;20383;-69
2023/08/06 04:52:32;;;;;;;21.37;14.20;;;14.30;99.90;;;;;;5093579;28;20047;-69
2023/08/06 04:54:58;;;;;;;17.43;14.73;;;14.30;99.90;;;;;;5093560;28;20047;-69
2023/08/06 04:57:23;;;;;;;16.07;14.43;;;14.30;99.90;;;;;;5093624;28;20036;-69
2023/08/06 04:59:50;;;;;;;16.07;14.10;;;14.30;99.90;;;;;;5093775;28;20383;-69
2023/08/06 05:02:15;;;;;;;16.53;13.87;;;14.30;99.90;;;;;;5093590;28;20073;-71
2023/08/06 05:04:41;;;;;;;15.67;14.07;;;14.30;99.90;;;;;;5109438;28;20036;-69
2023/08/06 05:07:07;;;;;;;15.77;13.37;;;14.40;99.90;;;;;;5093243;28;20106;-69
2023/08/06 05:09:33;;;;;;;17.07;14.20;;;14.40;99.90;;;;;;5093562;28;20050;-70
2023/08/06 05:12:02;;;;;;;16.47;13.77;;;14.40;99.90;;;;;;5092597;28;20036;-70
2023/08/06 05:14:27;;;;;;;16.13;14.23;;;14.40;99.90;;;;;;5091901;28;20040;-70
2023/08/06 05:16:53;;;;;;;16.30;14.30;;;14.50;99.90;;;;;;5093571;28;20039;-69
2023/08/06 05:19:19;;;;;;;15.07;13.37;;;14.50;99.90;;;;;;5093233;28;20052;-70
2023/08/06 05:21:45;;;;;;;16.17;14.27;;;14.50;99.90;;;;;;5093342;28;20490;-70
2023/08/06 05:24:12;;;;;;;15.00;13.50;;;14.60;99.90;;;;;;5093441;28;20043;-69
2023/08/06 05:26:37;;;;;;;16.60;13.43;;;14.60;99.90;;;;;;5093040;28;20055;-70
2023/08/06 05:29:03;;;;;;;15.10;12.97;;;14.70;99.90;;;;;;5093311;28;20052;-69
2023/08/06 05:31:29;;;;;;;15.23;13.07;;;14.70;99.90;;;;;;5093117;28;20161;-70
2023/08/06 05:33:55;;;;;;;14.57;13.07;;;14.70;99.90;;;;;;5093679;28;20044;-69
2023/08/06 05:36:21;;;;;;;17.77;13.60;;;14.80;99.90;;;;;;5093026;28;20414;-70
2023/08/06 05:38:47;;;;;;;18.07;13.23;;;14.80;99.90;;;;;;5075129;28;20380;-70
2023/08/06 05:41:13;;;;;;;14.87;13.20;;;14.90;99.90;;;;;;5093032;28;20484;-69
2023/08/06 05:43:38;;;;;;;14.93;13.37;;;14.90;99.90;;;;;;5092682;28;20050;-70
2023/08/06 05:46:04;;;;;;;15.17;12.30;;;14.90;99.90;;;;;;5093084;28;20086;-70
2023/08/06 05:48:30;;;;;;;17.63;13.40;;;14.90;99.90;;;;;;5092973;28;20533;-70
2023/08/06 05:50:55;;;;;;;15.00;12.37;;;15.00;99.90;;;;;;5093137;28;20051;-70
2023/08/06 05:53:21;;;;;;;15.10;12.47;;;14.90;99.90;;;;;;5092942;28;20458;-72
2023/08/06 05:55:47;;;;;;;15.83;13.10;;;14.90;99.90;;;;;;5093110;28;20043;-70
2023/08/06 05:58:13;;;;;;;14.47;12.53;;;15.00;99.90;;;;;;5093101;28;20032;-70
2023/08/06 06:00:39;;;;;;;15.27;13.27;;;15.00;99.90;;;;;;5092825;28;20429;-70
2023/08/06 06:03:04;;;;;;;15.07;13.23;;;15.00;99.90;;;;;;5093012;28;20083;-70
2023/08/06 06:05:30;;;;;;;14.00;12.50;;;15.00;99.90;;;;;;5091435;28;20123;-70
2023/08/06 06:07:56;;;;;;;16.73;12.57;;;15.00;99.90;;;;;;5092873;28;20044;-70
2023/08/06 06:10:21;;;;;;;14.37;12.87;;;15.00;99.90;;;;;;5108894;28;20097;-69
2023/08/06 06:12:47;;;;;;;17.20;12.93;;;15.10;99.90;;;;;;5108467;28;20493;-70
2023/08/06 06:15:13;;;;;;;14.53;12.70;;;15.00;99.90;;;;;;5092835;28;20036;-69
2023/08/06 06:17:39;;;;;;;14.70;13.07;;;15.00;99.90;;;;;;5092679;28;20040;-70
2023/08/06 06:20:05;;;;;;;20.77;13.93;;;15.10;99.90;;;;;;5093104;28;20123;-70
2023/08/06 06:22:31;;;;;;;13.73;12.33;;;15.10;99.90;;;;;;5092682;28;20118;-70
2023/08/06 06:24:56;;;;;;;13.37;11.97;;;15.20;99.90;;;;;;5092846;28;20601;-70
2023/08/06 06:27:22;;;;;;;14.10;12.60;;;15.20;99.90;;;;;;5092750;28;20055;-70
2023/08/06 06:29:48;;;;;;;14.53;12.33;;;15.30;99.90;;;;;;5092564;28;20043;-70
2023/08/06 06:32:13;;;;;;;14.80;13.30;;;15.40;99.90;;;;;;5092934;28;20062;-70
2023/08/06 06:34:39;;;;;;;15.27;12.53;;;15.40;99.90;;;;;;5095916;28;20093;-70
2023/08/06 06:37:05;;;;;;;15.30;13.53;;;15.50;99.90;;;;;;5096397;28;20525;-70
2023/08/06 06:39:31;;;;;;;14.77;13.10;;;15.60;99.90;;;;;;5096169;28;20046;-70
2023/08/06 06:41:56;;;;;;;13.53;12.07;;;15.80;99.90;;;;;;5112026;28;20043;-70
2023/08/06 06:44:22;;;;;;;14.07;11.87;;;15.90;99.90;;;;;;5096296;28;20044;-70
2023/08/06 06:46:48;;;;;;;15.43;11.80;;;16.00;99.90;;;;;;5095846;28;20442;-70
2023/08/06 06:49:13;;;;;;;14.27;10.87;;;16.50;99.90;;;;;;5096125;28;20043;-70
2023/08/06 06:51:39;;;;;;;13.20;10.50;;;17.20;99.90;;;;;;5095859;28;20093;-70
2023/08/06 06:54:05;;;;;;;10.40;9.30;;;17.80;99.90;;;;;;5096066;28;20048;-70
2023/08/06 06:56:30;;;;;;;9.83;8.83;;;18.80;99.90;;;;;;5094860;28;20043;-70
2023/08/06 06:58:56;;;;;;;8.23;7.43;;;19.60;99.90;;;;;;5096041;28;20484;-70
2023/08/06 07:01:22;;;;;;;10.77;7.83;;;19.60;99.90;;;;;;5095794;28;20047;-71
2023/08/06 07:03:48;;;;;;;8.87;7.80;;;19.20;99.90;;;;;;5095629;28;20131;-70
2023/08/06 07:06:15;;;;;;;10.00;7.47;;;19.00;99.90;;;;;;5095726;28;20040;-70
2023/08/06 07:08:41;;;;;;;9.77;7.17;;;18.80;99.90;;;;;;5094412;28;20373;-70
2023/08/06 07:11:07;;;;;;;8.17;7.37;;;18.60;99.90;;;;;;5095707;28;20051;-70
2023/08/06 07:13:35;;;;;;;9.70;7.77;;;18.50;99.90;;;;;;5095405;28;20062;-70
2023/08/06 07:16:00;;;;;;;10.53;7.67;;;18.40;99.90;;;;;;5095969;28;20039;-70
2023/08/06 07:18:26;;;;;;;9.53;7.97;;;18.30;99.90;;;;;;5095529;28;20047;-70
2023/08/06 07:20:54;;;;;;;9.30;7.20;;;18.20;99.90;;;;;;5094365;28;20047;-70
2023/08/06 07:23:21;;;;;;;11.13;8.00;;;18.20;99.90;;;;;;5094294;28;20048;-70
2023/08/06 07:25:48;;;;;;;9.23;6.77;;;18.20;99.90;;;;;;5094860;28;20078;-70
2023/08/06 07:28:14;;;;;;;9.03;7.37;;;18.10;99.90;;;;;;5095428;28;20048;-70
2023/08/06 07:30:41;;;;;;;9.87;7.67;;;18.00;99.90;;;;;;5095121;28;20048;-69
2023/08/06 07:33:07;;;;;;;9.73;6.93;;;17.90;99.90;;;;;;5095008;28;20537;-69
2023/08/06 07:35:34;;;;;;;10.37;7.80;;;17.70;99.90;;;;;;5095140;28;20036;-70
2023/08/06 07:37:59;;;;;;;8.30;7.17;;;17.60;99.90;;;;;;5094246;28;20078;-69
2023/08/06 07:40:25;;;;;;;9.17;7.57;;;17.50;99.90;;;;;;5095138;28;20051;-69
2023/08/06 07:42:51;;;;;;;11.23;7.67;;;17.40;99.90;;;;;;5094912;28;20468;-69
2023/08/06 07:45:16;;;;;;;9.43;7.57;;;17.40;99.90;;;;;;5095036;28;20044;-69
2023/08/06 07:47:42;;;;;;;8.23;7.30;;;17.30;99.90;;;;;;5094780;28;20379;-69
2023/08/06 07:50:09;;;;;;;9.10;7.00;;;17.30;99.90;;;;;;5094873;28;20047;-69
2023/08/06 07:52:35;;;;;;;8.57;7.00;;;17.30;99.90;;;;;;5093855;28;20122;-70
2023/08/06 07:55:02;;;;;;;8.63;6.80;;;17.30;99.90;;;;;;5094881;28;20433;-69
2023/08/06 07:57:29;;;;;;;9.13;6.40;;;17.40;99.90;;;;;;5093805;28;20100;-69
2023/08/06 07:59:55;;;;;;;8.10;6.13;;;17.50;99.90;;;;;;5094628;28;20547;-70
2023/08/06 08:02:20;;;;;;;7.50;6.63;;;17.60;99.90;;;;;;5094612;28;20048;-69
2023/08/06 08:04:47;;;;;;;8.83;7.07;;;18.00;99.90;;;;;;5093171;28;20083;-70
2023/08/06 08:07:13;;;;;;;8.47;5.87;;;18.70;99.90;;;;;;5094547;28;20043;-70
2023/08/06 08:09:39;;;;;;;6.93;5.87;;;19.30;99.90;;;;;;5094407;28;20040;-70
2023/08/06 08:12:05;;;;;;;7.83;6.17;;;19.50;99.90;;;;;;5094472;28;20384;-70
2023/08/06 08:14:35;;;;;;;7.60;5.80;;;19.50;99.90;;;;;;5094473;28;20122;-70
2023/08/06 08:17:02;;;;;;;9.13;5.90;;;19.40;99.90;;;;;;5094351;28;20040;-69
2023/08/06 08:19:28;;;;;;;9.77;6.00;;;19.30;99.90;;;;;;5093260;28;20127;-69
2023/08/06 08:21:54;;;;;;;8.53;5.47;;;19.30;99.90;;;;;;5094205;28;20471;-70
2023/08/06 08:24:23;;;;;;;6.43;5.43;;;19.40;99.90;;;;;;5094295;28;20050;-69
2023/08/06 08:26:53;;;;;;;8.40;5.47;;;19.50;99.90;;;;;;5093967;28;20056;-70
2023/08/06 08:29:20;;;;;;;8.93;4.97;;;19.50;99.90;;;;;;5093883;28;20488;-69
2023/08/06 08:31:48;;;;;;;7.50;5.30;;;19.40;99.90;;;;;;5093998;28;20392;-70
2023/08/06 08:34:15;;;;;;;7.90;5.10;;;19.30;99.90;;;;;;5094006;28;20487;-69
2023/08/06 08:36:40;;;;;;;7.10;5.57;;;19.30;99.90;;;;;;5093890;28;20478;-70
2023/08/06 08:39:06;;;;;;;7.03;4.83;;;19.40;99.90;;;;;;5094057;28;20035;-70
2023/08/06 08:41:33;;;;;;;6.73;4.90;;;19.40;99.90;;;;;;5092822;28;20044;-70
2023/08/06 08:44:02;;;;;;;7.10;4.90;;;19.40;99.90;;;;;;5093745;28;20036;-70
2023/08/06 08:46:31;;;;;;;6.30;4.37;;;19.40;99.90;;;;;;5093901;28;20036;-70
2023/08/06 08:48:59;;;;;;;6.67;4.80;;;19.40;99.90;;;;;;5093704;28;20478;-70
2023/08/06 08:51:27;;;;;;;6.40;4.97;;;19.30;99.90;;;;;;5093831;28;20044;-70
2023/08/06 08:53:56;;;;;;;9.03;4.90;;;19.30;99.90;;;;;;5093245;28;20483;-70
2023/08/06 08:56:22;;;;;;;8.07;3.80;;;19.30;99.90;;;;;;5093414;28;20068;-69
2023/08/06 08:58:48;;;;;;;8.37;4.93;;;19.50;99.90;;;;;;5092575;28;20137;-70
2023/08/06 09:01:15;;;;;;;6.50;5.17;;;19.50;99.90;;;;;;5093707;28;20039;-70
2023/08/06 09:03:43;;;;;;;7.73;4.93;;;19.60;99.90;;;;;;5093809;28;20044;-70
2023/08/06 09:06:12;;;;;;;6.03;4.40;;;19.70;99.90;;;;;;5093274;28;20479;-70
2023/08/06 09:08:46;;;;;;;7.07;4.50;;;19.70;99.90;;;;;;5093598;28;20050;-70
2023/08/06 09:11:12;;;;;;;6.05;4.65;;;19.80;99.90;;;;;;5093846;28;20048;-70
2023/08/06 09:13:38;;;;;;;7.30;5.40;;;19.90;99.90;;;;;;5093462;28;20048;-70
2023/08/06 09:16:04;;;;;;;7.03;5.70;;;19.90;99.90;;;;;;5093336;28;20093;-70
2023/08/06 09:18:31;;;;;;;7.27;4.70;;;19.70;99.90;;;;;;5093592;28;20044;-70
2023/08/06 09:20:57;;;;;;;7.47;4.90;;;19.70;99.90;;;;;;5093173;28;20040;-70
2023/08/06 09:23:31;;;;;;;8.33;5.33;;;19.80;99.90;;;;;;5092204;28;20039;-70
2023/08/06 09:25:57;;;;;;;5.50;4.33;;;19.80;99.90;;;;;;5091892;28;20055;-70
2023/08/06 09:28:26;;;;;;;7.27;4.27;;;19.90;99.90;;;;;;5093322;28;20090;-70
2023/08/06 09:30:55;;;;;;;7.00;4.00;;;20.00;99.90;;;;;;5092243;28;20097;-70
2023/08/06 09:33:22;;;;;;;6.63;4.60;;;20.20;99.90;;;;;;5092332;28;20051;-70
2023/08/06 09:35:48;;;;;;;5.70;3.73;;;20.50;99.90;;;;;;5093100;28;20036;-70
2023/08/06 09:38:14;;;;;;;5.57;4.13;;;20.60;99.90;;;;;;5093460;28;20578;-69
2023/08/06 09:40:40;;;;;;;4.67;3.10;;;20.70;99.90;;;;;;5093377;28;20105;-70
2023/08/06 09:43:06;;;;;;;4.40;2.80;;;20.70;99.90;;;;;;5092914;28;20255;-70
2023/08/06 09:45:37;;;;;;;5.67;3.13;;;20.80;99.90;;;;;;5093097;28;20044;-70
2023/08/06 09:48:05;;;;;;;4.77;2.97;;;20.80;99.90;;;;;;5093000;28;20085;-70
2023/08/06 09:50:32;;;;;;;6.20;2.93;;;20.90;99.90;;;;;;5093089;28;20096;-70
2023/08/06 09:52:59;;;;;;;8.77;3.13;;;20.90;99.90;;;;;;5092906;28;20072;-70
2023/08/06 09:55:26;;;;;;;5.27;3.27;;;21.10;99.90;;;;;;5093004;28;20040;-70
2023/08/06 09:57:53;;;;;;;5.37;2.97;;;21.20;99.90;;;;;;5091864;28;20452;-70
2023/08/06 10:00:19;;;;;;;4.97;2.77;;;21.30;99.90;;;;;;5092604;28;20451;-70
2023/08/06 10:02:46;;;;;;;4.97;2.90;;;21.50;99.90;;;;;;5092972;28;20067;-70
2023/08/06 10:05:11;;;;;;;4.80;2.33;;;21.50;99.90;;;;;;5092723;28;20040;-70
2023/08/06 10:07:40;;;;;;;4.00;2.50;;;21.50;99.90;;;;;;5091798;28;20043;-70
2023/08/06 10:10:07;;;;;;;3.23;2.10;;;21.40;99.90;;;;;;5096658;28;20040;-70
2023/08/06 10:12:48;;;;;;;9.40;3.07;;;21.40;99.90;;;;;;5095552;28;20083;-70
2023/08/06 10:15:19;;;;;;;5.17;2.50;;;21.40;99.90;;;;;;5096971;28;20036;-70
2023/08/06 10:17:46;;;;;;;4.27;2.47;;;21.50;99.90;;;;;;5096750;28;20125;-70
2023/08/06 10:20:12;;;;;;;4.63;2.53;;;21.40;99.90;;;;;;5096516;28;20106;-70
2023/08/06 10:22:44;;;;;;;4.77;2.47;;;21.50;99.90;;;;;;5078631;28;20035;-70
2023/08/06 10:25:10;;;;;;;5.17;2.47;;;21.50;99.90;;;;;;5096442;28;20040;-70
2023/08/06 10:27:41;;;;;;;3.80;2.13;;;21.40;99.90;;;;;;5096509;28;20062;-70
2023/08/06 10:30:31;;;;;;;4.17;2.33;;;21.40;99.90;;;;;;5096386;28;20044;-70
2023/08/06 10:33:01;;;;;;;3.63;2.03;;;21.40;99.90;;;;;;5096386;28;20387;-70
2023/08/06 10:35:35;;;;;;;5.03;2.93;;;21.40;99.90;;;;;;5096738;28;20043;-70
2023/08/06 10:38:16;;;;;;;10.53;2.07;;;21.40;99.90;;;;;;5096278;28;20073;-70
2023/08/06 10:40:53;;;;;;;5.00;1.93;;;21.30;99.90;;;;;;5096296;28;20097;-70
2023/08/06 10:43:47;;;;;;;5.23;2.20;;;21.20;99.90;;;;;;5095205;28;20548;-70
2023/08/06 10:46:23;;;;;;;3.73;1.90;;;21.30;99.90;;;;;;5091981;28;20067;-70
2023/08/06 10:48:49;;;;;;;4.60;2.03;;;21.40;99.90;;;;;;5096189;28;20051;-70
2023/08/06 10:51:15;;;;;;;6.77;2.10;;;21.60;99.90;;;;;;5094854;28;20040;-70
2023/08/06 10:53:45;;;;;;;4.10;2.10;;;21.70;99.90;;;;;;5096043;28;20043;-70
2023/08/06 10:56:18;;;;;;;3.03;1.90;;;21.70;99.90;;;;;;5095688;28;20040;-70
2023/08/06 10:58:48;;;;;;;4.40;1.77;;;21.70;99.90;;;;;;5096156;28;20075;-70
2023/08/06 11:01:14;;;;;;;3.67;1.80;;;21.60;99.90;;;;;;5094748;28;20127;-71
2023/08/06 11:03:41;;;;;;;3.33;1.83;;;21.60;99.90;;;;;;5094748;28;20040;-71
2023/08/06 11:06:08;;;;;;;3.23;1.63;;;21.70;99.90;;;;;;5094520;28;20040;-72
2023/08/06 11:08:35;;;;;;;4.30;1.93;;;21.90;99.90;;;;;;5094769;28;20048;-71
2023/08/06 11:11:13;;;;;;;4.53;1.77;;;21.90;99.90;;;;;;5095562;28;20087;-71
2023/08/06 11:13:48;;;;;;;4.80;1.97;;;22.10;99.90;;;;;;5095893;28;20044;-71
2023/08/06 11:16:18;;;;;;;3.83;1.90;;;22.00;99.90;;;;;;5095505;28;20035;-71
2023/08/06 11:18:44;;;;;;;5.70;2.37;;;22.00;99.90;;;;;;5095229;28;20044;-71
2023/08/06 11:21:11;;;;;;;5.73;2.57;;;21.90;99.90;;;;;;5095335;28;20400;-71
2023/08/06 11:23:37;;;;;;;4.20;2.27;;;21.80;99.90;;;;;;5094505;28;20121;-71
2023/08/06 11:26:03;;;;;;;4.47;2.30;;;21.80;99.90;;;;;;5094926;28;20048;-71
2023/08/06 11:28:29;;;;;;;4.83;2.23;;;21.70;99.90;;;;;;5095367;28;20468;-70
2023/08/06 11:30:56;;;;;;;3.93;2.10;;;21.80;99.90;;;;;;5094082;28;20044;-71
2023/08/06 11:33:26;;;;;;;3.83;2.23;;;22.00;99.90;;;;;;5095331;28;20036;-71
2023/08/06 11:35:54;;;;;;;3.67;2.40;;;22.00;99.90;;;;;;5095177;28;20429;-71
2023/08/06 11:38:20;;;;;;;4.80;2.37;;;21.90;99.90;;;;;;5094967;28;20044;-71
2023/08/06 11:40:46;;;;;;;5.37;2.20;;;21.90;99.90;;;;;;5095311;28;20126;-71
2023/08/06 11:43:13;;;;;;;5.27;2.57;;;21.80;99.90;;;;;;5094848;28;20040;-71
2023/08/06 11:45:38;;;;;;;7.07;2.83;;;21.90;99.90;;;;;;5093765;28;20055;-71
2023/08/06 11:48:05;;;;;;;6.63;2.50;;;21.90;99.90;;;;;;5094979;28;20380;-71
2023/08/06 11:50:31;;;;;;;4.67;2.33;;;21.80;99.90;;;;;;5094972;28;20129;-71
2023/08/06 11:53:00;;;;;;;4.00;2.20;;;21.80;99.90;;;;;;5094504;28;20468;-71
2023/08/06 11:55:27;;;;;;;6.07;3.00;;;21.80;99.90;;;;;;5093891;28;20079;-71
2023/08/06 11:57:54;;;;;;;5.40;2.60;;;21.70;99.90;;;;;;5093922;28;20135;-71
2023/08/06 12:00:22;;;;;;;5.20;2.70;;;21.60;99.90;;;;;;5093468;28;20038;-71
2023/08/06 12:02:49;;;;;;;4.43;2.10;;;21.70;99.90;;;;;;5094764;28;20039;-71
2023/08/06 12:05:20;;;;;;;5.70;2.53;;;21.70;99.90;;;;;;5094580;28;20044;-71
2023/08/06 12:07:51;;;;;;;4.07;2.17;;;21.80;99.90;;;;;;5094580;28;20090;-71
2023/08/06 12:10:19;;;;;;;4.50;2.30;;;21.70;99.90;;;;;;5094353;28;20048;-71
2023/08/06 12:12:45;;;;;;;4.47;2.37;;;21.60;99.90;;;;;;5094551;28;20455;-71
2023/08/06 12:15:11;;;;;;;4.67;2.70;;;21.70;99.90;;;;;;5094268;28;20052;-71
2023/08/06 12:17:37;;;;;;;3.33;1.90;;;21.80;99.90;;;;;;5094456;28;20043;-71
2023/08/06 12:20:06;;;;;;;5.67;2.43;;;21.90;99.90;;;;;;5094200;28;20071;-72
2023/08/06 12:22:35;;;;;;;5.20;2.40;;;22.00;99.90;;;;;;5094536;28;20501;-70
2023/08/06 12:25:08;;;;;;;5.47;1.83;;;21.90;99.90;;;;;;5094350;28;20541;-70
2023/08/06 12:27:39;;;;;;;4.73;2.60;;;21.90;99.90;;;;;;5094244;28;20047;-71
2023/08/06 12:30:06;;;;;;;5.50;1.83;;;21.80;99.90;;;;;;5094157;28;20040;-71
2023/08/06 12:32:32;;;;;;;4.40;2.30;;;21.70;99.90;;;;;;5093250;28;20479;-71
2023/08/06 12:34:57;;;;;;;5.97;2.40;;;21.70;99.90;;;;;;5094091;28;20119;-71